Time;durP1;ratioP1;P1;durP2;ratioP2;P2;SDS_P1;SDS_P2;PMS_P1;PMS_P2;Temp;Humidity;BMP_temperature;BMP_pressure;BME280_temperature;BME280_humidity;BME280_pressure;Samples;Min_cycle;Max_cycle;Signal;HPM_P1;HPM_P2
2021/09/10 00:01:58;;;;;;;2.53;2.33;;;;;;;;;;5026243;28;20205;-86
2021/09/10 00:04:24;;;;;;;2.50;2.00;;;;;;;;;;5041996;28;20432;-86
2021/09/10 00:06:50;;;;;;;3.47;2.27;;;;;;;;;;5055751;28;20539;-86
2021/09/10 00:09:17;;;;;;;2.40;2.20;;;;;;;;;;5042421;28;20396;-86
2021/09/10 00:11:43;;;;;;;5.35;1.90;;;;;;;;;;5026474;28;20909;-86
2021/09/10 00:14:09;;;;;;;2.88;2.10;;;;;;;;;;5039399;28;20187;-86
2021/09/10 00:16:35;;;;;;;2.63;1.97;;;;;;;;;;5023934;28;20241;-86
2021/09/10 00:19:01;;;;;;;4.10;2.47;;;;;;;;;;5034967;28;20436;-86
2021/09/10 00:21:27;;;;;;;2.17;2.07;;;;;;;;;;5030587;28;20239;-86
2021/09/10 00:23:53;;;;;;;2.13;1.93;;;;;;;;;;5021248;28;20421;-86
2021/09/10 00:26:19;;;;;;;2.65;1.50;;;;;;;;;;5026867;28;20416;-85
2021/09/10 00:28:45;;;;;;;4.57;2.33;;;;;;;;;;5026445;28;20279;-86
2021/09/10 00:31:11;;;;;;;5.18;2.00;;;;;;;;;;5042939;28;20223;-86
2021/09/10 00:33:37;;;;;;;2.20;2.00;;;;;;;;;;5040716;28;20183;-87
2021/09/10 00:36:04;;;;;;;3.05;1.80;;;;;;;;;;5045400;28;20224;-87
2021/09/10 00:38:30;;;;;;;3.95;1.60;;;;;;;;;;5060258;28;20191;-86
2021/09/10 00:40:57;;;;;;;3.67;1.83;;;;;;;;;;5030001;28;20179;-86
2021/09/10 00:43:23;;;;;;;3.15;2.03;;;;;;;;;;5044471;28;20354;-86
2021/09/10 00:45:49;;;;;;;3.23;1.93;;;;;;;;;;5044549;28;20190;-86
2021/09/10 00:48:17;;;;;;;3.38;2.10;;;;;;;;;;5033816;28;20979;-86
2021/09/10 00:50:43;;;;;;;2.45;2.10;;;;;;;;;;5035710;28;20187;-86
2021/09/10 00:53:09;;;;;;;4.90;1.75;;;;;;;;;;5042403;28;20851;-86
2021/09/10 00:55:36;;;;;;;2.50;2.00;;;;;;;;;;5059241;28;20708;-85
2021/09/10 00:58:03;;;;;;;4.95;1.83;;;;;;;;;;5041532;28;20179;-86
2021/09/10 01:00:29;;;;;;;2.17;1.98;;;;;;;;;;5042979;28;20175;-86
2021/09/10 01:02:55;;;;;;;2.83;2.25;;;;;;;;;;5019208;28;20654;-86
2021/09/10 01:05:22;;;;;;;3.28;2.20;;;;;;;;;;5053667;28;20215;-86
2021/09/10 01:07:48;;;;;;;3.90;2.35;;;;;;;;;;5024815;28;20198;-86
2021/09/10 01:10:15;;;;;;;4.18;2.30;;;;;;;;;;5056154;28;20194;-87
2021/09/10 01:12:41;;;;;;;2.97;2.00;;;;;;;;;;5060424;28;20175;-85
2021/09/10 01:15:07;;;;;;;2.10;2.00;;;;;;;;;;5044072;28;20203;-86
2021/09/10 01:17:33;;;;;;;3.70;1.85;;;;;;;;;;5031384;28;20182;-86
2021/09/10 01:19:59;;;;;;;4.13;2.15;;;;;;;;;;5043116;28;20222;-86
2021/09/10 01:22:25;;;;;;;3.40;2.35;;;;;;;;;;5043569;28;20188;-86
2021/09/10 01:25:13;;;;;;;3.63;2.23;;;;;;;;;;5027840;28;20179;-86
2021/09/10 01:27:41;;;;;;;2.83;1.85;;;;;;;;;;5029599;28;20437;-87
2021/09/10 01:30:07;;;;;;;4.22;2.50;;;;;;;;;;5031226;28;20582;-86
2021/09/10 01:32:33;;;;;;;2.97;2.00;;;;;;;;;;5042517;28;20225;-86
2021/09/10 01:34:59;;;;;;;3.85;2.22;;;;;;;;;;5029377;28;20207;-85
2021/09/10 01:37:25;;;;;;;2.33;2.10;;;;;;;;;;5057303;28;20186;-85
2021/09/10 01:39:51;;;;;;;3.70;2.33;;;;;;;;;;5059458;28;20181;-85
2021/09/10 01:42:17;;;;;;;6.30;2.27;;;;;;;;;;5031038;28;20430;-86
2021/09/10 01:44:43;;;;;;;2.47;2.00;;;;;;;;;;5029231;28;20910;-86
2021/09/10 01:47:09;;;;;;;3.30;2.10;;;;;;;;;;5027168;28;20446;-86
2021/09/10 01:49:35;;;;;;;4.07;2.33;;;;;;;;;;5041337;28;20532;-85
2021/09/10 01:52:01;;;;;;;2.60;1.80;;;;;;;;;;5041126;28;20444;-86
2021/09/10 01:54:28;;;;;;;4.00;2.43;;;;;;;;;;5032921;28;20452;-86
2021/09/10 01:56:55;;;;;;;2.35;2.00;;;;;;;;;;5056642;28;20479;-86
2021/09/10 01:59:21;;;;;;;3.05;1.88;;;;;;;;;;5042016;28;20229;-86
2021/09/10 02:01:47;;;;;;;2.40;2.00;;;;;;;;;;5024554;28;20199;-86
2021/09/10 02:04:13;;;;;;;4.87;1.97;;;;;;;;;;5055045;28;20955;-86
2021/09/10 02:06:39;;;;;;;3.50;1.97;;;;;;;;;;5060582;28;20417;-86
2021/09/10 02:09:05;;;;;;;2.38;2.17;;;;;;;;;;5030822;28;20422;-86
2021/09/10 02:11:31;;;;;;;3.60;2.45;;;;;;;;;;5028345;28;20247;-86
2021/09/10 02:13:57;;;;;;;3.10;2.60;;;;;;;;;;5025886;28;20274;-86
2021/09/10 02:16:23;;;;;;;4.40;2.33;;;;;;;;;;5041544;28;21332;-87
2021/09/10 02:18:49;;;;;;;5.07;1.90;;;;;;;;;;5058888;28;20498;-86
2021/09/10 02:21:15;;;;;;;3.55;1.95;;;;;;;;;;5043904;28;20224;-86
2021/09/10 02:23:41;;;;;;;3.77;2.63;;;;;;;;;;5031749;28;20174;-86
2021/09/10 02:26:07;;;;;;;1.70;1.60;;;;;;;;;;5036747;28;20481;-86
2021/09/10 02:28:33;;;;;;;2.65;2.25;;;;;;;;;;5039187;28;20212;-85
2021/09/10 02:30:59;;;;;;;2.17;1.85;;;;;;;;;;5055433;28;20291;-85
2021/09/10 02:33:27;;;;;;;10.10;5.10;;;;;;;;;;5031672;28;20202;-85
2021/09/10 02:35:53;;;;;;;2.13;1.92;;;;;;;;;;5030385;28;20471;-86
2021/09/10 02:38:19;;;;;;;5.07;2.25;;;;;;;;;;5040970;28;20386;-85
2021/09/10 02:40:45;;;;;;;4.40;2.43;;;;;;;;;;5056210;28;20182;-85
2021/09/10 02:43:11;;;;;;;3.60;2.17;;;;;;;;;;5039805;28;20496;-86
2021/09/10 02:45:37;;;;;;;2.50;2.30;;;;;;;;;;5042289;28;20408;-85
2021/09/10 02:48:03;;;;;;;3.20;2.10;;;;;;;;;;5028117;28;20773;-85
2021/09/10 02:50:29;;;;;;;4.20;2.47;;;;;;;;;;5021798;28;20441;-85
2021/09/10 02:52:55;;;;;;;3.53;2.17;;;;;;;;;;5029727;28;20271;-85
2021/09/10 02:55:21;;;;;;;3.75;2.10;;;;;;;;;;5048817;28;20206;-86
2021/09/10 02:57:47;;;;;;;4.30;2.60;;;;;;;;;;5039720;28;20186;-85
2021/09/10 03:00:14;;;;;;;2.33;2.10;;;;;;;;;;5042771;28;20196;-85
2021/09/10 03:02:40;;;;;;;3.88;2.22;;;;;;;;;;5039360;28;20587;-85
2021/09/10 03:05:06;;;;;;;2.97;2.13;;;;;;;;;;5023413;28;20185;-86
2021/09/10 03:07:32;;;;;;;3.17;2.08;;;;;;;;;;5034875;28;20188;-85
2021/09/10 03:09:58;;;;;;;1.83;1.70;;;;;;;;;;5056757;28;20191;-85
2021/09/10 03:12:25;;;;;;;2.97;2.00;;;;;;;;;;5044693;28;20458;-85
2021/09/10 03:14:51;;;;;;;3.53;2.70;;;;;;;;;;5040669;28;20529;-85
2021/09/10 03:17:17;;;;;;;2.80;2.55;;;;;;;;;;5022877;28;20184;-85
2021/09/10 03:19:43;;;;;;;3.73;2.20;;;;;;;;;;5023183;28;20184;-85
2021/09/10 03:22:09;;;;;;;2.78;2.53;;;;;;;;;;5053986;28;20447;-86
2021/09/10 03:24:35;;;;;;;4.15;2.30;;;;;;;;;;5043310;28;20176;-86
2021/09/10 03:27:01;;;;;;;3.30;3.00;;;;;;;;;;5030181;28;20544;-85
2021/09/10 03:29:27;;;;;;;5.07;2.88;;;;;;;;;;5027889;28;20446;-85
2021/09/10 03:31:53;;;;;;;3.17;2.20;;;;;;;;;;5024768;28;20230;-85
2021/09/10 03:34:20;;;;;;;4.47;2.50;;;;;;;;;;5041034;28;20445;-86
2021/09/10 03:36:46;;;;;;;3.90;2.55;;;;;;;;;;5058573;28;20431;-85
2021/09/10 03:39:13;;;;;;;3.42;2.45;;;;;;;;;;5028484;28;20543;-84
2021/09/10 03:41:39;;;;;;;3.17;2.63;;;;;;;;;;5028674;28;20206;-85
2021/09/10 03:44:05;;;;;;;3.97;2.95;;;;;;;;;;5027248;28;20956;-84
2021/09/10 03:46:31;;;;;;;2.67;2.47;;;;;;;;;;5055439;28;20635;-85
2021/09/10 03:48:57;;;;;;;2.97;2.60;;;;;;;;;;5055652;28;20185;-85
2021/09/10 03:51:23;;;;;;;3.50;1.90;;;;;;;;;;5043959;28;20185;-85
2021/09/10 03:53:49;;;;;;;6.35;3.03;;;;;;;;;;5025861;28;20446;-85
2021/09/10 03:56:15;;;;;;;3.23;2.80;;;;;;;;;;5023357;28;20270;-85
2021/09/10 04:01:18;;;;;;;7.57;3.30;;;;;;;;;;3214321;26;20460;-87
2021/09/10 04:03:44;;;;;;;2.90;2.70;;;;;;;;;;4962534;28;20331;-88
2021/09/10 04:06:10;;;;;;;3.85;2.40;;;;;;;;;;4968420;28;20186;-87
2021/09/10 04:08:36;;;;;;;3.58;3.13;;;;;;;;;;4964137;28;20201;-84
2021/09/10 04:11:02;;;;;;;4.82;3.78;;;;;;;;;;4968063;28;20203;-88
2021/09/10 04:13:28;;;;;;;5.25;3.47;;;;;;;;;;4980425;28;20197;-88
2021/09/10 04:15:54;;;;;;;3.10;2.80;;;;;;;;;;4966424;28;20219;-87
2021/09/10 04:18:20;;;;;;;4.53;3.83;;;;;;;;;;4968327;28;20198;-88
2021/09/10 04:20:46;;;;;;;3.87;3.17;;;;;;;;;;4981061;28;20210;-88
2021/09/10 04:23:12;;;;;;;3.30;2.73;;;;;;;;;;4961810;28;20534;-88
2021/09/10 04:25:38;;;;;;;3.47;2.53;;;;;;;;;;4967043;28;20440;-88
2021/09/10 04:28:07;;;;;;;5.80;3.40;;;;;;;;;;4962286;28;20432;-88
2021/09/10 04:30:33;;;;;;;3.83;3.22;;;;;;;;;;4966696;28;20437;-88
2021/09/10 04:32:59;;;;;;;4.17;3.40;;;;;;;;;;4962044;28;20194;-85
2021/09/10 04:35:25;;;;;;;3.53;3.00;;;;;;;;;;4970319;28;20473;-86
2021/09/10 04:37:51;;;;;;;3.70;3.22;;;;;;;;;;4962231;28;20229;-88
2021/09/10 04:40:18;;;;;;;3.40;2.50;;;;;;;;;;4968928;28;20191;-87
2021/09/10 04:42:44;;;;;;;5.30;2.55;;;;;;;;;;4976819;28;20437;-87
2021/09/10 04:45:10;;;;;;;4.10;3.70;;;;;;;;;;4964358;28;20199;-88
2021/09/10 04:47:37;;;;;;;4.47;2.72;;;;;;;;;;4963807;28;20193;-87
2021/09/10 04:50:03;;;;;;;4.05;3.03;;;;;;;;;;4968828;28;20176;-86
2021/09/10 04:52:29;;;;;;;4.45;3.47;;;;;;;;;;4966731;28;20225;-86
2021/09/10 04:54:55;;;;;;;3.87;3.20;;;;;;;;;;4966356;28;20208;-87
2021/09/10 04:57:21;;;;;;;4.13;3.00;;;;;;;;;;4955928;28;20450;-88
2021/09/10 04:59:47;;;;;;;4.70;2.80;;;;;;;;;;4965429;28;20427;-85
2021/09/10 05:02:13;;;;;;;3.25;2.95;;;;;;;;;;4968094;28;20464;-85
2021/09/10 05:04:39;;;;;;;5.10;2.57;;;;;;;;;;4982240;28;20209;-85
2021/09/10 05:07:05;;;;;;;3.10;2.80;;;;;;;;;;4963715;28;20531;-87
2021/09/10 05:09:31;;;;;;;4.03;3.50;;;;;;;;;;4965538;28;20964;-85
2021/09/10 05:11:57;;;;;;;4.90;3.90;;;;;;;;;;4968435;28;20437;-85
2021/09/10 05:14:23;;;;;;;5.33;4.53;;;;;;;;;;4970314;28;20440;-86
2021/09/10 05:16:49;;;;;;;4.80;3.97;;;;;;;;;;4982550;28;20444;-85
2021/09/10 05:19:15;;;;;;;4.68;4.28;;;;;;;;;;4964938;28;20407;-85
2021/09/10 05:21:41;;;;;;;4.17;3.37;;;;;;;;;;4971133;28;20212;-86
2021/09/10 05:24:07;;;;;;;7.53;3.03;;;;;;;;;;4967227;28;20476;-85
2021/09/10 05:26:33;;;;;;;3.33;3.08;;;;;;;;;;4975576;28;20403;-86
2021/09/10 05:28:59;;;;;;;5.00;3.20;;;;;;;;;;4965833;28;20189;-84
2021/09/10 05:31:26;;;;;;;4.95;2.92;;;;;;;;;;4967782;28;20196;-84
2021/09/10 05:33:52;;;;;;;5.10;3.22;;;;;;;;;;4965464;28;20188;-84
2021/09/10 05:36:18;;;;;;;3.90;2.90;;;;;;;;;;4969656;28;20243;-86
2021/09/10 05:38:44;;;;;;;3.03;2.80;;;;;;;;;;4966011;28;20525;-85
2021/09/10 05:41:10;;;;;;;3.73;3.00;;;;;;;;;;4974931;28;20955;-85
2021/09/10 05:43:36;;;;;;;2.85;2.65;;;;;;;;;;4966082;28;20437;-85
2021/09/10 05:46:02;;;;;;;3.95;3.25;;;;;;;;;;4969955;28;20190;-85
2021/09/10 05:48:28;;;;;;;4.78;3.38;;;;;;;;;;4973593;28;20189;-86
2021/09/10 05:50:54;;;;;;;7.20;3.00;;;;;;;;;;4986772;28;20192;-86
2021/09/10 05:53:20;;;;;;;3.88;3.25;;;;;;;;;;4983289;28;21235;-85
2021/09/10 05:55:46;;;;;;;4.38;2.95;;;;;;;;;;4966823;28;20209;-85
2021/09/10 05:58:13;;;;;;;4.57;3.60;;;;;;;;;;4967486;28;20188;-86
2021/09/10 06:00:39;;;;;;;5.15;3.10;;;;;;;;;;4969464;28;20273;-85
2021/09/10 06:03:05;;;;;;;4.40;3.25;;;;;;;;;;4960244;28;20213;-85
2021/09/10 06:05:31;;;;;;;5.15;3.50;;;;;;;;;;4973795;28;20186;-85
2021/09/10 06:07:57;;;;;;;5.00;3.60;;;;;;;;;;4966926;28;20189;-85
2021/09/10 06:10:23;;;;;;;2.97;2.78;;;;;;;;;;4969276;28;20265;-85
2021/09/10 06:12:50;;;;;;;5.43;3.67;;;;;;;;;;4963866;28;20181;-85
2021/09/10 06:15:16;;;;;;;4.03;3.17;;;;;;;;;;4967956;28;20224;-85
2021/09/10 06:17:42;;;;;;;5.53;3.25;;;;;;;;;;4965809;28;20197;-84
2021/09/10 06:20:09;;;;;;;3.55;2.90;;;;;;;;;;4969312;28;20320;-84
2021/09/10 06:22:35;;;;;;;3.72;3.38;;;;;;;;;;4963649;28;20205;-84
2021/09/10 06:25:02;;;;;;;5.50;3.20;;;;;;;;;;4965413;28;20187;-83
2021/09/10 06:27:29;;;;;;;7.00;3.72;;;;;;;;;;4982994;28;20194;-84
2021/09/10 06:29:55;;;;;;;5.85;3.45;;;;;;;;;;4967527;28;20220;-84
2021/09/10 06:32:24;;;;;;;4.50;3.05;;;;;;;;;;4966144;28;20185;-84
2021/09/10 06:34:50;;;;;;;3.90;3.50;;;;;;;;;;4979587;28;20293;-84
2021/09/10 06:37:16;;;;;;;4.65;3.63;;;;;;;;;;4962977;28;20199;-84
2021/09/10 06:39:42;;;;;;;3.58;2.85;;;;;;;;;;4964241;28;20195;-83
2021/09/10 06:42:08;;;;;;;5.25;3.35;;;;;;;;;;4966372;28;20182;-83
2021/09/10 06:44:34;;;;;;;6.00;3.45;;;;;;;;;;4982794;28;20205;-84
2021/09/10 06:47:00;;;;;;;5.72;3.22;;;;;;;;;;4966303;28;20661;-84
2021/09/10 06:49:26;;;;;;;5.72;3.20;;;;;;;;;;4965260;28;20193;-83
2021/09/10 06:51:52;;;;;;;7.60;3.53;;;;;;;;;;4981904;28;20185;-83
2021/09/10 06:54:18;;;;;;;5.90;3.35;;;;;;;;;;4963752;28;20404;-83
2021/09/10 06:56:44;;;;;;;4.80;3.35;;;;;;;;;;4983214;28;20285;-82
2021/09/10 06:59:11;;;;;;;6.03;2.95;;;;;;;;;;4962596;28;20188;-83
2021/09/10 07:01:37;;;;;;;4.93;2.95;;;;;;;;;;4963628;28;20213;-83
2021/09/10 07:04:03;;;;;;;4.57;3.58;;;;;;;;;;4978951;28;20270;-82
2021/09/10 07:06:30;;;;;;;5.68;3.58;;;;;;;;;;4966930;28;20205;-83
2021/09/10 07:08:56;;;;;;;5.05;3.00;;;;;;;;;;4962308;28;20201;-83
2021/09/10 07:11:22;;;;;;;4.22;3.05;;;;;;;;;;4967314;28;20186;-82
2021/09/10 07:13:52;;;;;;;7.05;3.63;;;;;;;;;;4974162;28;20290;-82
2021/09/10 07:16:18;;;;;;;3.40;3.10;;;;;;;;;;4969437;28;20443;-82
2021/09/10 07:18:44;;;;;;;3.92;3.15;;;;;;;;;;4962643;28;20241;-83
2021/09/10 07:21:10;;;;;;;7.10;3.70;;;;;;;;;;4969006;28;20586;-83
2021/09/10 07:23:36;;;;;;;4.45;3.10;;;;;;;;;;4964659;28;20518;-82
2021/09/10 07:26:03;;;;;;;5.93;3.95;;;;;;;;;;4965442;28;20187;-82
2021/09/10 07:28:33;;;;;;;4.80;3.42;;;;;;;;;;4964249;28;20202;-82
2021/09/10 07:30:59;;;;;;;4.38;3.10;;;;;;;;;;4964221;28;20201;-83
2021/09/10 07:33:25;;;;;;;4.45;3.42;;;;;;;;;;4961585;28;20206;-83
2021/09/10 07:35:52;;;;;;;6.22;3.67;;;;;;;;;;4966757;28;20602;-82
2021/09/10 07:38:18;;;;;;;5.32;3.67;;;;;;;;;;4963909;28;20181;-82
2021/09/10 07:40:44;;;;;;;4.35;3.10;;;;;;;;;;4963305;28;20206;-82
2021/09/10 07:43:10;;;;;;;5.57;3.60;;;;;;;;;;4963842;28;20190;-83
2021/09/10 07:45:36;;;;;;;5.43;4.32;;;;;;;;;;4965972;28;20200;-82
2021/09/10 07:48:02;;;;;;;6.53;3.00;;;;;;;;;;4961217;28;20195;-83
2021/09/10 07:50:28;;;;;;;6.10;3.53;;;;;;;;;;4985362;28;20184;-81
2021/09/10 07:52:54;;;;;;;5.43;3.40;;;;;;;;;;4973233;28;20189;-85
2021/09/10 07:55:21;;;;;;;4.78;2.70;;;;;;;;;;4962360;28;20208;-82
2021/09/10 07:57:47;;;;;;;3.75;3.45;;;;;;;;;;4975103;28;20192;-81
2021/09/10 08:00:17;;;;;;;6.57;3.40;;;;;;;;;;4965692;28;20282;-81
2021/09/10 08:02:43;;;;;;;6.53;3.13;;;;;;;;;;4963635;28;20172;-81
2021/09/10 08:05:09;;;;;;;3.22;2.72;;;;;;;;;;4966257;28;20180;-81
2021/09/10 08:07:35;;;;;;;3.53;3.10;;;;;;;;;;4964330;28;20192;-80
2021/09/10 08:10:01;;;;;;;5.63;3.45;;;;;;;;;;4965762;28;20498;-81
2021/09/10 08:12:28;;;;;;;6.10;2.60;;;;;;;;;;4964397;28;20191;-81
2021/09/10 08:14:54;;;;;;;2.73;2.40;;;;;;;;;;4980490;28;20217;-80
2021/09/10 08:17:20;;;;;;;3.40;2.70;;;;;;;;;;4965446;28;20566;-81
2021/09/10 08:19:49;;;;;;;3.13;2.83;;;;;;;;;;4966451;28;20422;-80
2021/09/10 08:22:15;;;;;;;2.90;2.28;;;;;;;;;;4965081;28;20252;-82
2021/09/10 08:24:41;;;;;;;2.60;2.17;;;;;;;;;;4961578;28;20198;-79
2021/09/10 08:27:07;;;;;;;2.47;2.27;;;;;;;;;;4961535;28;20868;-79
2021/09/10 08:29:33;;;;;;;5.33;2.90;;;;;;;;;;4968108;28;20493;-79
2021/09/10 08:31:59;;;;;;;3.00;2.17;;;;;;;;;;4966505;28;20405;-80
2021/09/10 08:34:25;;;;;;;2.13;2.03;;;;;;;;;;4961158;28;20426;-79
2021/09/10 08:36:51;;;;;;;2.73;2.53;;;;;;;;;;4964706;28;20439;-79
2021/09/10 08:39:17;;;;;;;3.83;2.70;;;;;;;;;;4963112;28;20519;-78
2021/09/10 08:41:43;;;;;;;2.60;2.40;;;;;;;;;;4972054;28;20394;-78
2021/09/10 08:44:11;;;;;;;3.67;2.10;;;;;;;;;;4964101;28;20430;-78
2021/09/10 08:46:38;;;;;;;2.57;2.37;;;;;;;;;;4963963;28;20442;-78
2021/09/10 08:49:05;;;;;;;5.33;2.50;;;;;;;;;;4964905;28;20411;-79
2021/09/10 08:51:31;;;;;;;6.13;2.80;;;;;;;;;;4969311;28;20418;-80
2021/09/10 08:53:56;;;;;;;2.77;2.17;;;;;;;;;;4962917;28;20425;-75
2021/09/10 08:56:22;;;;;;;2.93;2.40;;;;;;;;;;4964980;28;20490;-77
2021/09/10 08:58:48;;;;;;;2.70;2.50;;;;;;;;;;4964824;28;20421;-79
2021/09/10 09:01:14;;;;;;;3.27;1.90;;;;;;;;;;4967322;28;20464;-76
2021/09/10 09:03:40;;;;;;;2.10;2.00;;;;;;;;;;4961135;28;20414;-76
2021/09/10 09:06:06;;;;;;;4.43;2.37;;;;;;;;;;4989624;28;20440;-77
2021/09/10 09:08:32;;;;;;;5.30;2.67;;;;;;;;;;4966401;28;20792;-77
2021/09/10 09:11:03;;;;;;;3.00;2.23;;;;;;;;;;4961827;28;20451;-76
2021/09/10 09:13:32;;;;;;;2.57;2.37;;;;;;;;;;4963933;28;20903;-79
2021/09/10 09:16:14;;;;;;;2.37;2.10;;;;;;;;;;4966680;28;20475;-77
2021/09/10 09:18:44;;;;;;;3.10;2.00;;;;;;;;;;4964884;28;20478;-77
2021/09/10 09:21:10;;;;;;;2.40;1.77;;;;;;;;;;4969760;28;20442;-78
2021/09/10 09:23:36;;;;;;;3.40;2.57;;;;;;;;;;4966748;28;20399;-77
2021/09/10 09:26:13;;;;;;;3.60;2.07;;;;;;;;;;4971858;28;20505;-76
2021/09/10 09:28:39;;;;;;;4.13;2.60;;;;;;;;;;4981309;28;20429;-77
2021/09/10 09:31:08;;;;;;;4.80;2.73;;;;;;;;;;4968235;28;20505;-78
2021/09/10 09:33:37;;;;;;;2.37;2.17;;;;;;;;;;4963799;28;20443;-76
2021/09/10 09:36:05;;;;;;;2.40;2.10;;;;;;;;;;4970534;28;20472;-77
2021/09/10 09:38:32;;;;;;;3.93;2.10;;;;;;;;;;4967005;28;20399;-79
2021/09/10 09:41:08;;;;;;;3.20;1.77;;;;;;;;;;4970255;28;20542;-76
2021/09/10 09:43:35;;;;;;;2.17;1.97;;;;;;;;;;4967416;28;20492;-76
2021/09/10 09:46:01;;;;;;;2.43;2.07;;;;;;;;;;4967618;28;20407;-78
2021/09/10 09:48:29;;;;;;;3.20;2.10;;;;;;;;;;4962448;28;20440;-77
2021/09/10 09:50:59;;;;;;;2.30;1.90;;;;;;;;;;4969856;28;20536;-76
2021/09/10 09:53:25;;;;;;;3.27;2.00;;;;;;;;;;4962013;28;20410;-78
2021/09/10 09:55:51;;;;;;;4.93;2.30;;;;;;;;;;4967490;28;20442;-79
2021/09/10 09:58:17;;;;;;;2.53;1.70;;;;;;;;;;4967102;28;20513;-76
2021/09/10 10:00:45;;;;;;;2.90;1.70;;;;;;;;;;4967567;28;20438;-78
2021/09/10 10:03:11;;;;;;;2.63;2.27;;;;;;;;;;4978502;28;20440;-77
2021/09/10 10:05:49;;;;;;;2.77;1.73;;;;;;;;;;4971766;28;20442;-76
2021/09/10 10:08:18;;;;;;;2.33;2.13;;;;;;;;;;4961651;28;20430;-77
2021/09/10 10:10:48;;;;;;;2.60;2.00;;;;;;;;;;4978260;28;20410;-77
2021/09/10 10:13:21;;;;;;;2.70;2.20;;;;;;;;;;4966447;28;20426;-77
2021/09/10 10:15:49;;;;;;;2.30;2.07;;;;;;;;;;4966925;28;20512;-77
2021/09/10 10:18:35;;;;;;;3.00;1.97;;;;;;;;;;4962967;28;20413;-78
2021/09/10 10:21:01;;;;;;;2.50;1.90;;;;;;;;;;4976481;28;20433;-77
2021/09/10 10:23:42;;;;;;;4.00;1.67;;;;;;;;;;4967249;28;20523;-77
2021/09/10 10:26:09;;;;;;;2.20;2.00;;;;;;;;;;4969503;28;20429;-77
2021/09/10 10:28:46;;;;;;;2.97;2.37;;;;;;;;;;4966015;28;20434;-78
2021/09/10 10:31:12;;;;;;;2.43;2.23;;;;;;;;;;4966091;28;20448;-77
2021/09/10 10:33:49;;;;;;;2.30;2.00;;;;;;;;;;4961702;28;20433;-84
2021/09/10 10:36:32;;;;;;;2.23;2.03;;;;;;;;;;4968752;28;20438;-78
2021/09/10 10:39:14;;;;;;;3.50;1.80;;;;;;;;;;4959119;28;20455;-77
2021/09/10 10:41:52;;;;;;;3.20;2.10;;;;;;;;;;4976599;28;20434;-78
2021/09/10 10:44:31;;;;;;;2.87;2.50;;;;;;;;;;4968225;28;20504;-78
2021/09/10 10:47:06;;;;;;;2.20;1.97;;;;;;;;;;4965513;28;20430;-78
2021/09/10 10:49:33;;;;;;;2.50;2.30;;;;;;;;;;4963429;28;20418;-78
2021/09/10 10:51:59;;;;;;;2.40;1.97;;;;;;;;;;4966073;28;20424;-77
2021/09/10 10:54:30;;;;;;;4.90;1.83;;;;;;;;;;4979210;28;20453;-79
2021/09/10 10:56:58;;;;;;;4.30;2.47;;;;;;;;;;4969634;28;20496;-77
2021/09/10 10:59:25;;;;;;;3.73;2.07;;;;;;;;;;4966983;28;20459;-76
2021/09/10 11:02:10;;;;;;;1.90;1.80;;;;;;;;;;4964258;28;20443;-77
2021/09/10 11:04:40;;;;;;;3.60;2.27;;;;;;;;;;4963420;28;20422;-77
2021/09/10 11:07:06;;;;;;;3.20;3.00;;;;;;;;;;4967182;28;20467;-77
2021/09/10 11:09:32;;;;;;;3.13;2.70;;;;;;;;;;4979217;28;20409;-77
2021/09/10 11:11:58;;;;;;;3.50;2.20;;;;;;;;;;4976897;28;20436;-79
2021/09/10 11:14:31;;;;;;;2.20;2.00;;;;;;;;;;4967595;28;20482;-77
2021/09/10 11:17:13;;;;;;;3.47;2.27;;;;;;;;;;4964494;28;20417;-77
2021/09/10 11:19:44;;;;;;;3.20;2.50;;;;;;;;;;4964374;28;20406;-77
2021/09/10 11:22:10;;;;;;;2.47;1.90;;;;;;;;;;4963514;28;20498;-77
2021/09/10 11:24:36;;;;;;;2.03;1.83;;;;;;;;;;4963146;28;20403;-77
2021/09/10 11:27:02;;;;;;;6.47;2.90;;;;;;;;;;4966235;28;20453;-77
2021/09/10 11:29:38;;;;;;;4.50;2.40;;;;;;;;;;4982907;28;20417;-77
2021/09/10 11:32:23;;;;;;;2.27;2.07;;;;;;;;;;4966030;28;20418;-77
2021/09/10 11:34:49;;;;;;;2.60;2.37;;;;;;;;;;4964988;28;21067;-77
2021/09/10 11:37:31;;;;;;;4.10;2.17;;;;;;;;;;4966565;28;20426;-77
2021/09/10 11:39:58;;;;;;;2.63;2.30;;;;;;;;;;4980600;28;20867;-77
2021/09/10 11:42:35;;;;;;;2.17;2.07;;;;;;;;;;4979061;28;20472;-83
2021/09/10 11:45:08;;;;;;;3.03;2.33;;;;;;;;;;4973806;28;20415;-77
2021/09/10 11:47:35;;;;;;;2.40;2.20;;;;;;;;;;4965073;28;20426;-76
2021/09/10 11:50:01;;;;;;;2.73;2.00;;;;;;;;;;4966749;28;20406;-77
2021/09/10 11:52:37;;;;;;;4.17;1.90;;;;;;;;;;4962304;28;20431;-77
2021/09/10 11:55:06;;;;;;;5.40;1.93;;;;;;;;;;4966072;28;20469;-79
2021/09/10 11:57:32;;;;;;;3.57;2.30;;;;;;;;;;4957454;28;20457;-78
2021/09/10 11:59:58;;;;;;;2.37;1.70;;;;;;;;;;4963543;28;20450;-77
2021/09/10 12:02:25;;;;;;;3.37;2.20;;;;;;;;;;4956020;28;20432;-77
2021/09/10 12:04:58;;;;;;;2.70;1.73;;;;;;;;;;4961676;28;20475;-77
2021/09/10 12:07:28;;;;;;;3.00;2.20;;;;;;;;;;4958828;28;20542;-78
2021/09/10 12:09:54;;;;;;;3.63;2.30;;;;;;;;;;4965253;28;20484;-77
2021/09/10 12:12:21;;;;;;;2.40;2.00;;;;;;;;;;4966613;28;20487;-83
2021/09/10 12:14:53;;;;;;;4.33;2.00;;;;;;;;;;4965516;28;20474;-80
2021/09/10 12:17:22;;;;;;;2.63;2.10;;;;;;;;;;4965364;28;20437;-79
2021/09/10 12:19:51;;;;;;;2.03;1.83;;;;;;;;;;4962541;28;20458;-79
2021/09/10 12:22:36;;;;;;;3.03;1.80;;;;;;;;;;4961619;28;20887;-77
2021/09/10 12:25:21;;;;;;;2.10;1.90;;;;;;;;;;4964255;28;20462;-77
2021/09/10 12:27:47;;;;;;;1.60;1.50;;;;;;;;;;4960065;28;20483;-77
2021/09/10 12:30:14;;;;;;;1.80;1.70;;;;;;;;;;4963319;28;20922;-78
2021/09/10 12:32:40;;;;;;;2.03;1.83;;;;;;;;;;4964016;28;20439;-77
2021/09/10 12:35:07;;;;;;;2.03;1.90;;;;;;;;;;4964928;28;20459;-77
2021/09/10 12:37:33;;;;;;;1.80;1.70;;;;;;;;;;4964119;28;20839;-79
2021/09/10 12:39:59;;;;;;;2.30;1.80;;;;;;;;;;4964282;28;20638;-78
2021/09/10 12:42:25;;;;;;;2.50;1.70;;;;;;;;;;4954949;28;20458;-79
2021/09/10 12:44:51;;;;;;;2.90;1.87;;;;;;;;;;4978861;28;20472;-77
2021/09/10 12:47:17;;;;;;;1.60;1.50;;;;;;;;;;4965162;28;20427;-77
2021/09/10 12:49:44;;;;;;;1.60;1.50;;;;;;;;;;4962444;28;20788;-78
2021/09/10 12:52:10;;;;;;;2.20;2.00;;;;;;;;;;4963019;28;20443;-78
2021/09/10 12:54:36;;;;;;;2.20;1.90;;;;;;;;;;4963931;28;20448;-78
2021/09/10 12:57:02;;;;;;;1.97;1.83;;;;;;;;;;4967042;28;20504;-79
2021/09/10 12:59:28;;;;;;;1.80;1.70;;;;;;;;;;4966158;28;20505;-82
2021/09/10 13:01:54;;;;;;;4.30;2.00;;;;;;;;;;4962046;28;20989;-78
2021/09/10 13:04:20;;;;;;;2.10;1.87;;;;;;;;;;4960726;28;20435;-79
2021/09/10 13:06:46;;;;;;;1.83;1.73;;;;;;;;;;4980574;28;20435;-78
2021/09/10 13:09:12;;;;;;;2.20;2.00;;;;;;;;;;4977345;28;20452;-78
2021/09/10 13:11:38;;;;;;;1.80;1.70;;;;;;;;;;4966001;28;20457;-79
2021/09/10 13:14:04;;;;;;;1.93;1.83;;;;;;;;;;4963243;28;20508;-79
2021/09/10 13:16:30;;;;;;;1.70;1.60;;;;;;;;;;4960057;28;20482;-78
2021/09/10 13:18:56;;;;;;;2.30;2.10;;;;;;;;;;4952164;28;20436;-80
2021/09/10 13:21:22;;;;;;;2.23;1.53;;;;;;;;;;4975421;28;20444;-78
2021/09/10 13:23:48;;;;;;;1.83;1.73;;;;;;;;;;4962690;28;20448;-79
2021/09/10 13:26:14;;;;;;;2.67;1.90;;;;;;;;;;4967012;28;20472;-78
2021/09/10 13:28:40;;;;;;;2.70;1.70;;;;;;;;;;4959502;28;20507;-78
2021/09/10 13:31:07;;;;;;;2.17;1.77;;;;;;;;;;4963718;28;20798;-78
2021/09/10 13:33:34;;;;;;;2.20;1.87;;;;;;;;;;4960773;28;20443;-78
2021/09/10 13:36:00;;;;;;;3.07;1.67;;;;;;;;;;4969424;28;20466;-77
2021/09/10 13:38:26;;;;;;;1.90;1.80;;;;;;;;;;4972376;28;20429;-79
2021/09/10 13:40:52;;;;;;;2.13;1.90;;;;;;;;;;4966812;28;20441;-77
2021/09/10 13:43:18;;;;;;;2.73;1.67;;;;;;;;;;4967809;28;20514;-78
2021/09/10 13:45:44;;;;;;;1.87;1.77;;;;;;;;;;4965889;28;20442;-77
2021/09/10 13:48:10;;;;;;;1.80;1.70;;;;;;;;;;4964364;28;20462;-78
2021/09/10 13:50:36;;;;;;;4.73;1.90;;;;;;;;;;4985869;28;20478;-78
2021/09/10 13:53:02;;;;;;;1.93;1.80;;;;;;;;;;4971240;28;20435;-79
2021/09/10 13:55:28;;;;;;;2.43;2.23;;;;;;;;;;4968602;28;20494;-77
2021/09/10 13:57:54;;;;;;;2.20;1.77;;;;;;;;;;4968367;28;20556;-78
2021/09/10 14:00:20;;;;;;;2.90;1.63;;;;;;;;;;4965253;28;20460;-77
2021/09/10 14:02:46;;;;;;;2.40;1.63;;;;;;;;;;4965675;28;20430;-77
2021/09/10 14:05:12;;;;;;;2.03;1.90;;;;;;;;;;4970981;28;20439;-77
2021/09/10 14:07:39;;;;;;;3.00;1.90;;;;;;;;;;4963532;28;20527;-77
2021/09/10 14:10:06;;;;;;;2.63;2.13;;;;;;;;;;4966398;28;20432;-77
2021/09/10 14:12:32;;;;;;;3.43;2.67;;;;;;;;;;4964705;28;20734;-77
2021/09/10 14:14:58;;;;;;;2.43;2.13;;;;;;;;;;4978462;28;20478;-77
2021/09/10 14:17:24;;;;;;;3.30;2.57;;;;;;;;;;4961613;28;20433;-81
2021/09/10 14:19:50;;;;;;;2.50;2.23;;;;;;;;;;4963728;28;20440;-78
2021/09/10 14:22:16;;;;;;;2.03;1.73;;;;;;;;;;4962479;28;20451;-79
2021/09/10 14:24:43;;;;;;;2.43;1.77;;;;;;;;;;4966901;28;20447;-78
2021/09/10 14:27:10;;;;;;;2.13;1.90;;;;;;;;;;4962600;28;20478;-77
2021/09/10 14:29:35;;;;;;;3.93;1.90;;;;;;;;;;4969100;28;20432;-77
2021/09/10 14:32:01;;;;;;;2.03;1.90;;;;;;;;;;4963351;28;20433;-77
2021/09/10 14:34:32;;;;;;;2.40;2.20;;;;;;;;;;4967992;28;20436;-78
2021/09/10 14:36:58;;;;;;;2.30;1.90;;;;;;;;;;4964640;28;20501;-79
2021/09/10 14:39:24;;;;;;;2.37;2.17;;;;;;;;;;4963870;28;20774;-79
2021/09/10 14:41:50;;;;;;;1.87;1.60;;;;;;;;;;4966275;28;20632;-80
2021/09/10 14:44:16;;;;;;;2.23;1.80;;;;;;;;;;4964371;28;20446;-79
2021/09/10 14:46:42;;;;;;;1.70;1.60;;;;;;;;;;4963868;28;20441;-80